createdAt,value
2022-11-15T00:00:09.758Z,88.84
2022-11-15T00:01:09.753Z,89.15
2022-11-15T00:02:09.758Z,89.46
2022-11-15T00:03:09.732Z,89.15
2022-11-15T00:04:09.715Z,89.25
2022-11-15T00:05:09.716Z,89.01
2022-11-15T00:06:09.685Z,88.95
2022-11-15T00:07:14.853Z,89.15
2022-11-15T00:08:10.708Z,89.11
2022-11-15T00:09:09.643Z,89.04
2022-11-15T00:10:09.636Z,89.36
2022-11-15T00:11:09.638Z,89.36
2022-11-15T00:12:09.611Z,89.46
2022-11-15T00:13:09.594Z,89.66
2022-11-15T00:14:09.602Z,89.11
2022-11-15T00:15:09.669Z,89.31
2022-11-15T00:16:09.564Z,89.62
2022-11-15T00:17:09.571Z,89.21
2022-11-15T00:18:09.544Z,89.72
2022-11-15T00:19:09.550Z,89.42
2022-11-15T00:20:09.525Z,89.21
2022-11-15T00:21:09.534Z,89.62
2022-11-15T00:22:09.527Z,89.11
2022-11-15T00:23:09.488Z,89.11
2022-11-15T00:24:09.477Z,89.21
2022-11-15T00:25:09.465Z,89.42
2022-11-15T00:26:09.455Z,89.36
2022-11-15T00:27:09.440Z,89.93
2022-11-15T00:28:09.439Z,89.62
2022-11-15T00:29:09.449Z,89.83
2022-11-15T00:30:09.408Z,89.83
2022-11-15T00:31:09.397Z,89.62
2022-11-15T00:32:09.391Z,89.52
2022-11-15T00:33:09.377Z,89.72
2022-11-15T00:34:09.363Z,90.03
2022-11-15T00:35:09.398Z,90.14
2022-11-15T00:36:09.341Z,90.44
2022-11-15T00:37:09.337Z,90.65
2022-11-15T00:38:09.327Z,90.65
2022-11-15T00:39:09.304Z,90.65
2022-11-15T00:40:09.298Z,91.16
2022-11-15T00:41:10.108Z,90.65
2022-11-15T00:42:09.276Z,91.27
2022-11-15T00:43:09.271Z,91.16
2022-11-15T00:44:09.273Z,91.27
2022-11-15T00:45:09.249Z,91.67
2022-11-15T00:46:09.242Z,91.99
2022-11-15T00:47:09.246Z,91.78
2022-11-15T00:48:09.206Z,91.94
2022-11-15T00:49:09.195Z,92.40
2022-11-15T00:50:12.947Z,91.94
2022-11-15T00:51:10.203Z,92.19
2022-11-15T00:52:09.159Z,92.50
2022-11-15T00:53:09.163Z,91.84
2022-11-15T00:54:09.154Z,92.25
2022-11-15T00:55:09.130Z,91.88
2022-11-15T00:56:09.114Z,92.70
2022-11-15T00:57:09.130Z,92.91
2022-11-15T00:58:09.107Z,92.70
2022-11-15T00:59:09.085Z,92.91
2022-11-15T01:00:09.071Z,92.80
2022-11-15T01:01:09.205Z,92.80
2022-11-15T01:02:09.048Z,92.70
2022-11-15T01:03:09.068Z,92.80
2022-11-15T01:04:09.026Z,92.91
2022-11-15T01:05:09.020Z,92.91
2022-11-15T01:06:09.008Z,92.74
2022-11-15T01:07:09.076Z,92.70
2022-11-15T01:08:09.002Z,93.12
2022-11-15T01:09:08.998Z,92.70
2022-11-15T01:10:08.963Z,92.80
2022-11-15T01:11:08.954Z,92.40
2022-11-15T01:12:08.940Z,92.19
2022-11-15T01:13:08.937Z,92.08
2022-11-15T01:14:08.919Z,92.08
2022-11-15T01:15:08.943Z,92.19
2022-11-15T01:16:08.892Z,92.19
2022-11-15T01:17:08.884Z,92.29
2022-11-15T01:18:08.882Z,92.08
2022-11-15T01:19:08.868Z,92.29
2022-11-15T01:20:08.877Z,92.40
2022-11-15T01:21:08.840Z,92.60
2022-11-15T01:22:08.831Z,92.08
2022-11-15T01:23:08.839Z,91.78
2022-11-15T01:24:08.806Z,92.19
2022-11-15T01:25:08.797Z,91.99
2022-11-15T01:26:08.801Z,91.78
2022-11-15T01:27:08.775Z,92.19
2022-11-15T01:28:08.759Z,91.88
2022-11-15T01:29:08.753Z,91.78
2022-11-15T01:30:08.736Z,91.88
2022-11-15T01:31:08.748Z,92.04
2022-11-15T01:32:08.714Z,91.88
2022-11-15T01:33:08.726Z,91.94
2022-11-15T01:34:08.694Z,91.67
2022-11-15T01:35:08.688Z,91.12
2022-11-15T01:36:08.683Z,91.22
2022-11-15T01:37:08.672Z,91.22
2022-11-15T01:38:08.647Z,91.33
2022-11-15T01:39:08.664Z,91.02
2022-11-15T01:40:08.624Z,91.22
2022-11-15T01:41:08.639Z,91.12
2022-11-15T01:42:08.603Z,91.22
2022-11-15T01:43:08.606Z,91.22
2022-11-15T01:44:08.588Z,91.02
2022-11-15T01:45:08.575Z,91.22
2022-11-15T01:46:08.562Z,91.42
2022-11-15T01:47:08.570Z,91.33
2022-11-15T01:48:08.547Z,91.22
2022-11-15T01:49:08.531Z,91.22
2022-11-15T01:50:08.515Z,91.33
2022-11-15T01:51:08.508Z,91.22
2022-11-15T01:52:08.494Z,91.18
2022-11-15T01:53:08.518Z,91.28
2022-11-15T01:54:08.476Z,91.28
2022-11-15T01:55:08.496Z,91.38
2022-11-15T01:56:08.469Z,91.42
2022-11-15T01:57:08.448Z,91.28
2022-11-15T01:58:08.439Z,91.69
2022-11-15T01:59:08.424Z,91.08
2022-11-15T02:00:08.403Z,91.18
2022-11-15T02:01:08.434Z,91.28
2022-11-15T02:02:08.395Z,91.18
2022-11-15T02:03:08.389Z,91.18
2022-11-15T02:04:08.364Z,91.28
2022-11-15T02:05:08.357Z,91.08
2022-11-15T02:06:08.339Z,90.77
2022-11-15T02:07:08.401Z,91.08
2022-11-15T02:08:08.330Z,90.77
2022-11-15T02:09:08.334Z,90.97
2022-11-15T02:10:08.295Z,91.18
2022-11-15T02:11:08.305Z,91.28
2022-11-15T02:12:08.272Z,91.80
2022-11-15T02:13:08.264Z,92.00
2022-11-15T02:14:08.276Z,91.80
2022-11-15T02:15:08.265Z,91.90
2022-11-15T02:16:08.229Z,91.75
2022-11-15T02:17:08.225Z,91.18
2022-11-15T02:18:08.206Z,91.75
2022-11-15T02:19:08.201Z,91.90
2022-11-15T02:20:08.186Z,92.06
2022-11-15T02:21:08.193Z,91.96
2022-11-15T02:22:08.187Z,92.16
2022-11-15T02:23:08.154Z,92.47
2022-11-15T02:24:08.139Z,92.36
2022-11-15T02:25:08.137Z,92.06
2022-11-15T02:26:08.120Z,92.47
2022-11-15T02:27:08.141Z,92.78
2022-11-15T02:28:08.095Z,92.78
2022-11-15T02:29:08.100Z,92.68
2022-11-15T02:30:08.073Z,92.78
2022-11-15T02:31:08.069Z,92.88
2022-11-15T02:32:08.055Z,93.19
2022-11-15T02:33:08.056Z,93.19
2022-11-15T02:34:08.027Z,93.08
2022-11-15T02:35:08.022Z,92.78
2022-11-15T02:36:08.018Z,93.15
2022-11-15T02:37:08.000Z,93.70
2022-11-15T02:38:07.988Z,93.70
2022-11-15T02:39:07.987Z,93.45
2022-11-15T02:40:07.961Z,93.80
2022-11-15T02:41:07.955Z,93.60
2022-11-15T02:42:07.960Z,93.96
2022-11-15T02:43:08.537Z,93.96
2022-11-15T02:44:07.918Z,93.76
2022-11-15T02:45:07.943Z,94.17
2022-11-15T02:46:07.900Z,93.76
2022-11-15T02:47:07.886Z,94.48
2022-11-15T02:48:07.870Z,94.27
2022-11-15T02:49:07.863Z,95.40
2022-11-15T02:50:07.858Z,95.29
2022-11-15T02:51:07.870Z,94.68
2022-11-15T02:52:07.832Z,94.37
2022-11-15T02:53:07.822Z,94.58
2022-11-15T02:54:07.809Z,95.61
2022-11-15T02:55:07.796Z,94.99
2022-11-15T02:56:07.795Z,95.09
2022-11-15T02:57:07.776Z,95.40
2022-11-15T02:58:07.774Z,95.70
2022-11-15T02:59:07.782Z,95.29
2022-11-15T03:00:07.761Z,95.40
2022-11-15T03:01:07.786Z,94.99
2022-11-15T03:02:07.720Z,95.40
2022-11-15T03:03:07.712Z,96.01
2022-11-15T03:04:07.708Z,95.61
2022-11-15T03:05:07.687Z,95.81
2022-11-15T03:06:07.683Z,95.70
2022-11-15T03:07:07.728Z,95.61
2022-11-15T03:08:07.652Z,96.28
2022-11-15T03:09:07.642Z,96.22
2022-11-15T03:10:07.630Z,96.22
2022-11-15T03:11:07.639Z,95.91
2022-11-15T03:12:07.617Z,96.22
2022-11-15T03:13:07.608Z,95.97
2022-11-15T03:14:07.585Z,96.12
2022-11-15T03:15:07.602Z,95.91
2022-11-15T03:16:07.577Z,96.22
2022-11-15T03:17:07.556Z,96.12
2022-11-15T03:18:07.540Z,95.97
2022-11-15T03:19:07.527Z,96.07
2022-11-15T03:20:07.524Z,96.58
2022-11-15T03:21:07.528Z,96.28
2022-11-15T03:22:07.526Z,96.48
2022-11-15T03:23:07.487Z,96.07
2022-11-15T03:24:07.470Z,96.28
2022-11-15T03:25:07.462Z,96.28
2022-11-15T03:26:07.454Z,96.58
2022-11-15T03:27:07.454Z,96.69
2022-11-15T03:28:07.428Z,96.79
2022-11-15T03:29:07.435Z,96.79
2022-11-15T03:30:07.412Z,96.79
2022-11-15T03:31:07.420Z,96.79
2022-11-15T03:32:07.394Z,97.30
2022-11-15T03:33:07.374Z,97.30
2022-11-15T03:34:07.364Z,97.20
2022-11-15T03:35:07.367Z,97.36
2022-11-15T03:36:07.345Z,97.50
2022-11-15T03:37:07.340Z,96.99
2022-11-15T03:38:07.355Z,97.15
2022-11-15T03:39:07.317Z,97.05
2022-11-15T03:40:07.306Z,97.05
2022-11-15T03:41:07.286Z,96.95
2022-11-15T03:42:07.289Z,96.84
2022-11-15T03:43:07.264Z,97.25
2022-11-15T03:44:07.267Z,97.15
2022-11-15T03:45:07.243Z,97.15
2022-11-15T03:46:07.230Z,97.25
2022-11-15T03:47:07.248Z,97.25
2022-11-15T03:48:07.222Z,97.11
2022-11-15T03:49:07.208Z,97.21
2022-11-15T03:50:07.185Z,97.21
2022-11-15T03:51:07.198Z,96.49
2022-11-15T03:52:07.166Z,96.64
2022-11-15T03:53:07.166Z,96.59
2022-11-15T03:54:07.147Z,96.54
2022-11-15T03:55:07.130Z,96.19
2022-11-15T03:56:07.135Z,96.54
2022-11-15T03:57:07.110Z,96.19
2022-11-15T03:58:07.111Z,96.19
2022-11-15T03:59:07.091Z,96.23
2022-11-15T04:00:07.106Z,96.08
2022-11-15T04:01:07.208Z,96.08
2022-11-15T04:02:07.052Z,96.08
2022-11-15T04:03:07.069Z,95.88
2022-11-15T04:04:07.037Z,96.19
2022-11-15T04:05:07.030Z,96.08
2022-11-15T04:06:07.015Z,96.39
2022-11-15T04:07:07.095Z,96.29
2022-11-15T04:08:06.997Z,96.19
2022-11-15T04:09:06.991Z,96.08
2022-11-15T04:10:06.969Z,95.84
2022-11-15T04:11:06.960Z,96.19
2022-11-15T04:12:06.964Z,96.39
2022-11-15T04:13:06.934Z,96.08
2022-11-15T04:14:06.922Z,95.98
2022-11-15T04:15:06.932Z,96.39
2022-11-15T04:16:06.903Z,96.34
2022-11-15T04:17:06.889Z,95.78
2022-11-15T04:18:06.874Z,95.94
2022-11-15T04:19:06.900Z,95.84
2022-11-15T04:20:06.864Z,95.88
2022-11-15T04:21:06.852Z,96.14
2022-11-15T04:22:06.840Z,95.94
2022-11-15T04:23:06.830Z,95.84
2022-11-15T04:24:06.815Z,95.94
2022-11-15T04:25:06.818Z,95.84
2022-11-15T04:26:06.804Z,95.94
2022-11-15T04:27:06.794Z,95.84
2022-11-15T04:28:06.770Z,95.94
2022-11-15T04:29:06.786Z,95.94
2022-11-15T04:30:06.743Z,95.94
2022-11-15T04:31:06.738Z,95.94
2022-11-15T04:32:06.732Z,95.84
2022-11-15T04:33:06.711Z,96.00
2022-11-15T04:34:06.721Z,95.84
2022-11-15T04:35:06.710Z,95.89
2022-11-15T04:36:06.683Z,96.00
2022-11-15T04:37:06.667Z,96.20
2022-11-15T04:38:06.655Z,95.79
2022-11-15T04:39:06.650Z,95.79
2022-11-15T04:40:06.635Z,95.89
2022-11-15T04:41:06.642Z,96.20
2022-11-15T04:42:06.616Z,96.20
2022-11-15T04:43:06.603Z,95.79
2022-11-15T04:44:06.593Z,95.75
2022-11-15T04:45:06.592Z,96.00
2022-11-15T04:46:06.566Z,95.95
2022-11-15T04:47:06.582Z,95.85
2022-11-15T04:48:06.541Z,95.85
2022-11-15T04:49:06.531Z,96.00
2022-11-15T04:50:06.523Z,95.95
2022-11-15T04:51:06.551Z,96.15
2022-11-15T04:52:06.499Z,96.15
2022-11-15T04:53:06.503Z,96.15
2022-11-15T04:54:06.476Z,95.95
2022-11-15T04:55:08.252Z,95.79
2022-11-15T04:56:06.472Z,95.75
2022-11-15T04:57:06.471Z,95.95
2022-11-15T04:58:06.432Z,95.95
2022-11-15T04:59:06.431Z,96.26
2022-11-15T05:00:06.422Z,95.95
2022-11-15T05:01:06.486Z,95.75
2022-11-15T05:02:06.393Z,95.85
2022-11-15T05:03:06.378Z,95.64
2022-11-15T05:04:06.366Z,95.85
2022-11-15T05:05:06.354Z,95.64
2022-11-15T05:06:06.349Z,95.95
2022-11-15T05:07:06.446Z,96.26
2022-11-15T05:08:06.340Z,95.85
2022-11-15T05:09:06.319Z,95.85
2022-11-15T05:10:06.302Z,95.85
2022-11-15T05:11:06.289Z,95.85
2022-11-15T05:12:06.293Z,95.75
2022-11-15T05:13:06.268Z,95.85
2022-11-15T05:14:06.257Z,95.85
2022-11-15T05:15:06.245Z,95.95
2022-11-15T05:16:06.254Z,95.64
2022-11-15T05:17:06.225Z,95.54
2022-11-15T05:18:06.221Z,95.95
2022-11-15T05:19:06.209Z,95.95
2022-11-15T05:20:06.191Z,95.54
2022-11-15T05:21:06.179Z,96.05
2022-11-15T05:22:06.178Z,95.54
2022-11-15T05:23:06.173Z,95.64
2022-11-15T05:24:06.172Z,95.54
2022-11-15T05:25:06.151Z,95.95
2022-11-15T05:26:09.179Z,95.54
2022-11-15T05:27:06.116Z,95.34
2022-11-15T05:28:06.110Z,95.13
2022-11-15T05:29:06.091Z,95.34
2022-11-15T05:30:06.080Z,95.03
2022-11-15T05:31:06.086Z,94.93
2022-11-15T05:32:06.057Z,95.34
2022-11-15T05:33:06.052Z,95.03
2022-11-15T05:34:06.038Z,94.93
2022-11-15T05:35:06.024Z,94.93
2022-11-15T05:36:06.018Z,95.23
2022-11-15T05:37:06.000Z,94.93
2022-11-15T05:38:06.036Z,94.93
2022-11-15T05:39:05.997Z,94.93
2022-11-15T05:40:05.969Z,95.23
2022-11-15T05:41:05.959Z,94.93
2022-11-15T05:42:05.951Z,94.93
2022-11-15T05:43:05.935Z,95.13
2022-11-15T05:44:05.939Z,94.93
2022-11-15T05:45:05.915Z,94.82
2022-11-15T05:46:05.901Z,95.13
2022-11-15T05:47:05.907Z,94.89
2022-11-15T05:48:05.881Z,94.93
2022-11-15T05:49:05.874Z,94.93
2022-11-15T05:50:05.867Z,95.29
2022-11-15T05:51:05.844Z,94.93
2022-11-15T05:52:05.841Z,94.93
2022-11-15T05:53:05.826Z,94.98
2022-11-15T05:54:05.830Z,95.13
2022-11-15T05:55:05.837Z,95.44
2022-11-15T05:56:05.791Z,95.23
2022-11-15T05:57:05.774Z,95.34
2022-11-15T05:58:05.779Z,95.23
2022-11-15T05:59:05.755Z,95.19
2022-11-15T06:00:05.754Z,95.23
2022-11-15T06:01:05.741Z,95.54
2022-11-15T06:02:05.799Z,95.54
2022-11-15T06:03:05.734Z,95.85
2022-11-15T06:04:05.726Z,95.29
2022-11-15T06:05:05.696Z,95.39
2022-11-15T06:06:05.682Z,95.44
2022-11-15T06:07:05.732Z,95.70
2022-11-15T06:08:05.660Z,95.90
2022-11-15T06:09:05.672Z,95.70
2022-11-15T06:10:05.640Z,95.95
2022-11-15T06:11:05.639Z,96.05
2022-11-15T06:12:05.619Z,96.36
2022-11-15T06:13:05.600Z,96.97
2022-11-15T06:14:05.606Z,96.77
2022-11-15T06:15:05.586Z,96.67
2022-11-15T06:16:05.565Z,96.87
2022-11-15T06:17:11.035Z,97.13
2022-11-15T06:18:06.544Z,96.97
2022-11-15T06:19:05.536Z,97.08
2022-11-15T06:20:05.535Z,97.44
2022-11-15T06:21:05.525Z,97.49
2022-11-15T06:22:05.502Z,96.97
2022-11-15T06:23:05.514Z,96.97
2022-11-15T06:24:05.479Z,97.49
2022-11-15T06:25:05.899Z,97.38
2022-11-15T06:26:05.471Z,97.38
2022-11-15T06:27:05.465Z,97.79
2022-11-15T06:28:05.437Z,98.20
2022-11-15T06:29:05.430Z,98.10
2022-11-15T06:30:05.412Z,97.89
2022-11-15T06:31:05.400Z,98.10
2022-11-15T06:32:05.397Z,98.40
2022-11-15T06:33:05.376Z,98.40
2022-11-15T06:34:05.390Z,98.61
2022-11-15T06:35:05.356Z,98.50
2022-11-15T06:36:05.357Z,98.30
2022-11-15T06:37:05.341Z,98.40
2022-11-15T06:38:05.324Z,97.69
2022-11-15T06:39:05.316Z,98.81
2022-11-15T06:40:05.321Z,98.91
2022-11-15T06:41:05.292Z,98.61
2022-11-15T06:42:05.283Z,98.71
2022-11-15T06:43:05.286Z,98.71
2022-11-15T06:44:05.260Z,98.97
2022-11-15T06:45:05.253Z,98.97
2022-11-15T06:46:05.235Z,98.71
2022-11-15T06:47:05.221Z,98.40
2022-11-15T06:48:05.228Z,99.22
2022-11-15T06:49:09.440Z,98.71
2022-11-15T06:50:05.206Z,99.02
2022-11-15T06:51:05.190Z,98.91
2022-11-15T06:52:05.168Z,99.73
2022-11-15T06:53:05.156Z,99.52
2022-11-15T06:54:05.159Z,98.97
2022-11-15T06:55:05.138Z,99.27
2022-11-15T06:56:05.155Z,99.48
2022-11-15T06:57:05.108Z,99.18
2022-11-15T06:58:05.104Z,99.22
2022-11-15T06:59:05.131Z,99.68
2022-11-15T07:00:05.083Z,99.99
2022-11-15T07:01:05.121Z,99.48
2022-11-15T07:02:05.083Z,99.22
2022-11-15T07:03:05.049Z,99.79
2022-11-15T07:04:05.043Z,99.68
2022-11-15T07:05:05.023Z,99.79
2022-11-15T07:06:07.325Z,99.99
2022-11-15T07:07:05.067Z,99.99
2022-11-15T07:08:04.992Z,99.99
2022-11-15T07:09:04.995Z,99.89
2022-11-15T07:10:04.973Z,99.89
2022-11-15T07:11:04.956Z,99.79
2022-11-15T07:12:07.915Z,99.99
2022-11-15T07:13:04.950Z,99.99
2022-11-15T07:14:04.926Z,99.99
2022-11-15T07:15:04.961Z,99.89
2022-11-15T07:16:04.903Z,99.99
2022-11-15T07:17:04.887Z,99.99
2022-11-15T07:18:04.884Z,99.89
2022-11-15T07:19:04.864Z,99.89
2022-11-15T07:20:04.871Z,99.99
2022-11-15T07:21:04.846Z,99.99
2022-11-15T07:22:04.834Z,99.99
2022-11-15T07:23:04.835Z,99.99
2022-11-15T07:24:04.840Z,99.99
2022-11-15T07:25:04.804Z,99.99
2022-11-15T07:26:04.802Z,99.99
2022-11-15T07:27:04.775Z,99.99
2022-11-15T07:28:04.780Z,99.99
2022-11-15T07:29:04.753Z,99.99
2022-11-15T07:30:04.763Z,99.99
2022-11-15T07:31:04.753Z,99.99
2022-11-15T07:32:04.723Z,99.99
2022-11-15T07:33:04.709Z,99.99
2022-11-15T07:34:04.712Z,99.99
2022-11-15T07:35:04.707Z,99.99
2022-11-15T07:36:04.686Z,99.99
2022-11-15T07:37:04.678Z,99.99
2022-11-15T07:38:04.656Z,99.99
2022-11-15T07:39:04.642Z,99.99
2022-11-15T07:40:04.652Z,99.99
2022-11-15T07:41:04.633Z,99.99
2022-11-15T07:42:04.616Z,99.99
2022-11-15T07:43:04.602Z,99.99
2022-11-15T07:44:04.591Z,99.99
2022-11-15T07:45:04.584Z,99.99
2022-11-15T07:46:04.586Z,99.99
2022-11-15T07:47:04.574Z,99.99
2022-11-15T07:48:04.559Z,99.99
2022-11-15T07:49:04.802Z,99.99
2022-11-15T07:50:04.540Z,99.99
2022-11-15T07:51:04.515Z,99.99
2022-11-15T07:52:04.515Z,99.99
2022-11-15T07:53:04.482Z,99.99
2022-11-15T07:54:04.474Z,99.99
2022-11-15T07:55:04.474Z,99.99
2022-11-15T07:56:04.463Z,99.99
2022-11-15T07:57:07.549Z,99.99
2022-11-15T07:58:04.432Z,99.99
2022-11-15T07:59:04.438Z,99.99
2022-11-15T08:00:04.433Z,99.99
2022-11-15T08:01:04.588Z,99.99
2022-11-15T08:02:04.517Z,99.99
2022-11-15T08:03:04.452Z,99.99
2022-11-15T08:04:04.367Z,99.99
2022-11-15T08:05:04.377Z,99.99
2022-11-15T08:06:04.389Z,99.99
2022-11-15T08:07:04.387Z,99.99
2022-11-15T08:08:04.322Z,99.99
2022-11-15T08:09:04.312Z,99.99
2022-11-15T08:10:04.299Z,99.99
2022-11-15T08:11:04.294Z,99.99
2022-11-15T08:12:04.290Z,99.99
2022-11-15T08:13:04.348Z,99.99
2022-11-15T08:14:04.269Z,99.99
2022-11-15T08:15:04.239Z,99.99
2022-11-15T08:16:04.236Z,99.99
2022-11-15T08:17:04.227Z,99.99
2022-11-15T08:18:04.231Z,99.99
2022-11-15T08:19:04.227Z,99.99
2022-11-15T08:20:04.202Z,99.99
2022-11-15T08:21:04.174Z,99.99
2022-11-15T08:22:04.175Z,99.99
2022-11-15T08:23:04.156Z,99.99
2022-11-15T08:24:04.146Z,99.99
2022-11-15T08:25:04.138Z,99.99
2022-11-15T08:26:04.183Z,99.99
2022-11-15T08:27:04.161Z,99.99
2022-11-15T08:28:04.101Z,99.99
2022-11-15T08:29:04.086Z,99.99
2022-11-15T08:30:04.111Z,99.99
2022-11-15T08:31:04.063Z,99.99
2022-11-15T08:32:04.061Z,99.99
2022-11-15T08:33:04.061Z,99.99
2022-11-15T08:34:04.036Z,99.99
2022-11-15T08:35:04.043Z,99.99
2022-11-15T08:36:04.016Z,99.99
2022-11-15T08:37:04.017Z,99.99
2022-11-15T08:38:03.998Z,99.99
2022-11-15T08:39:03.972Z,99.99
2022-11-15T08:40:03.966Z,99.99
2022-11-15T08:41:03.949Z,99.99
2022-11-15T08:42:03.964Z,99.99
2022-11-15T08:43:03.958Z,99.99
2022-11-15T08:44:03.917Z,99.99
2022-11-15T08:45:03.907Z,99.99
2022-11-15T08:46:03.911Z,99.99
2022-11-15T08:47:03.900Z,99.99
2022-11-15T08:48:03.876Z,99.99
2022-11-15T08:49:03.865Z,99.99
2022-11-15T08:50:03.883Z,99.99
2022-11-15T08:51:03.878Z,99.80
2022-11-15T08:52:03.829Z,99.50
2022-11-15T08:53:03.815Z,99.99
2022-11-15T08:54:03.811Z,99.86
2022-11-15T08:55:03.792Z,99.91
2022-11-15T08:56:03.804Z,99.19
2022-11-15T08:57:03.797Z,99.09
2022-11-15T08:58:03.767Z,99.40
2022-11-15T08:59:03.750Z,98.79
2022-11-15T09:00:10.840Z,98.68
2022-11-15T09:01:03.787Z,98.23
2022-11-15T09:02:03.746Z,97.87
2022-11-15T09:03:03.732Z,97.97
2022-11-15T09:04:03.708Z,97.62
2022-11-15T09:05:03.698Z,98.02
2022-11-15T09:06:03.700Z,97.82
2022-11-15T09:07:03.710Z,97.52
2022-11-15T09:08:13.858Z,97.11
2022-11-15T09:09:04.663Z,97.00
2022-11-15T09:10:03.641Z,96.80
2022-11-15T09:11:03.619Z,97.41
2022-11-15T09:12:03.615Z,97.52
2022-11-15T09:13:03.612Z,97.31
2022-11-15T09:14:03.587Z,97.21
2022-11-15T09:15:03.588Z,96.66
2022-11-15T09:16:03.561Z,96.30
2022-11-15T09:17:03.581Z,96.76
2022-11-15T09:18:03.559Z,96.55
2022-11-15T09:19:07.617Z,96.04
2022-11-15T09:20:04.513Z,95.33
2022-11-15T09:21:03.507Z,94.82
2022-11-15T09:22:03.490Z,95.33
2022-11-15T09:23:03.510Z,94.21
2022-11-15T09:24:03.474Z,94.11
2022-11-15T09:25:05.319Z,93.96
2022-11-15T09:26:04.450Z,93.86
2022-11-15T09:27:03.455Z,93.50
2022-11-15T09:28:03.440Z,93.55
2022-11-15T09:29:03.417Z,93.60
2022-11-15T09:30:03.409Z,92.84
2022-11-15T09:31:03.418Z,92.79
2022-11-15T09:32:03.382Z,92.07
2022-11-15T09:33:03.371Z,91.97
2022-11-15T09:34:03.358Z,92.13
2022-11-15T09:35:03.362Z,91.42
2022-11-15T09:36:03.364Z,91.77
2022-11-15T09:37:03.347Z,91.31
2022-11-15T09:38:03.312Z,91.46
2022-11-15T09:39:03.340Z,91.11
2022-11-15T09:40:03.293Z,91.11
2022-11-15T09:41:03.287Z,90.75
2022-11-15T09:42:03.278Z,91.01
2022-11-15T09:43:03.258Z,90.30
2022-11-15T09:44:03.245Z,89.99
2022-11-15T09:45:03.249Z,90.20
2022-11-15T09:46:03.223Z,89.95
2022-11-15T09:47:03.221Z,90.40
2022-11-15T09:48:03.224Z,89.44
2022-11-15T09:49:03.190Z,88.77
2022-11-15T09:50:03.182Z,88.63
2022-11-15T09:51:03.189Z,88.53
2022-11-15T09:52:03.157Z,89.03
2022-11-15T09:53:03.149Z,88.93
2022-11-15T09:55:04.330Z,88.32
2022-11-15T09:56:03.113Z,88.53
2022-11-15T09:57:03.114Z,88.53
2022-11-15T09:58:03.089Z,88.32
2022-11-15T09:59:03.090Z,88.63
2022-11-15T10:00:44.741Z,88.36
2022-11-15T10:01:04.142Z,88.12
2022-11-15T10:02:03.050Z,88.32
2022-11-15T10:03:03.036Z,88.12
2022-11-15T10:04:06.564Z,88.02
2022-11-15T10:05:03.027Z,87.61
2022-11-15T10:06:03.029Z,87.10
2022-11-15T10:07:03.057Z,87.04
2022-11-15T10:08:02.982Z,86.63
2022-11-15T10:09:02.984Z,86.43
2022-11-15T10:10:02.968Z,86.13
2022-11-15T10:11:36.157Z,85.82
2022-11-15T10:12:03.960Z,86.13
2022-11-15T10:13:02.933Z,86.02
2022-11-15T10:14:02.917Z,85.86
2022-11-15T10:15:02.921Z,85.82
2022-11-15T10:16:02.887Z,85.86
2022-11-15T10:17:02.889Z,86.06
2022-11-15T10:18:02.864Z,86.43
2022-11-15T10:19:02.856Z,86.43
2022-11-15T10:20:05.973Z,86.33
2022-11-15T10:21:02.843Z,86.53
2022-11-15T10:22:02.822Z,86.57
2022-11-15T10:23:02.842Z,86.47
2022-11-15T10:24:02.798Z,86.33
2022-11-15T10:25:02.789Z,86.02
2022-11-15T10:26:06.789Z,86.57
2022-11-15T10:27:02.817Z,86.43
2022-11-15T10:28:02.760Z,85.82
2022-11-15T10:29:02.760Z,86.08
2022-11-15T10:30:02.746Z,85.78
2022-11-15T10:31:02.729Z,85.37
2022-11-15T10:32:02.737Z,84.82
2022-11-15T10:33:02.723Z,84.11
2022-11-15T10:34:02.703Z,83.60
2022-11-15T10:35:02.682Z,83.50
2022-11-15T10:36:02.671Z,82.28
2022-11-15T10:37:02.663Z,82.48
2022-11-15T10:38:02.652Z,82.59
2022-11-15T10:39:02.645Z,81.87
2022-11-15T10:40:02.621Z,82.59
2022-11-15T10:41:02.611Z,81.77
2022-11-15T10:42:06.283Z,81.37
2022-11-15T10:43:03.618Z,81.67
2022-11-15T10:44:02.589Z,82.38
2022-11-15T10:45:02.598Z,82.38
2022-11-15T10:46:13.667Z,81.67
2022-11-15T10:47:03.566Z,81.57
2022-11-15T10:48:02.541Z,82.04
2022-11-15T10:49:02.522Z,81.84
2022-11-15T10:50:02.526Z,81.63
2022-11-15T10:51:02.509Z,81.53
2022-11-15T10:52:02.488Z,81.73
2022-11-15T10:53:02.485Z,81.23
2022-11-15T10:54:02.466Z,81.23
2022-11-15T10:55:02.454Z,80.78
2022-11-15T10:56:02.468Z,81.43
2022-11-15T10:57:02.446Z,81.84
2022-11-15T10:58:02.421Z,82.14
2022-11-15T10:59:02.432Z,81.84
2022-11-15T11:00:02.399Z,81.90
2022-11-15T11:01:02.456Z,81.09
2022-11-15T11:02:02.383Z,81.09
2022-11-15T11:03:02.372Z,80.68
2022-11-15T11:04:02.353Z,79.46
2022-11-15T11:05:02.370Z,79.25
2022-11-15T11:06:02.331Z,79.66
2022-11-15T11:07:02.353Z,79.77
2022-11-15T11:08:02.317Z,80.07
2022-11-15T11:09:02.300Z,80.58
2022-11-15T11:10:02.292Z,80.07
2022-11-15T11:11:03.623Z,79.77
2022-11-15T11:12:02.276Z,80.07
2022-11-15T11:13:02.263Z,79.46
2022-11-15T11:14:02.247Z,79.32
2022-11-15T11:15:02.299Z,79.16
2022-11-15T11:16:02.219Z,78.75
2022-11-15T11:17:02.214Z,79.56
2022-11-15T11:18:02.203Z,79.46
2022-11-15T11:19:02.214Z,79.12
2022-11-15T11:20:02.260Z,79.56
2022-11-15T11:21:02.172Z,79.52
2022-11-15T11:22:02.160Z,79.32
2022-11-15T11:23:02.147Z,78.91
2022-11-15T11:24:02.163Z,79.16
2022-11-15T11:25:02.130Z,79.22
2022-11-15T11:26:02.117Z,79.42
2022-11-15T11:27:02.107Z,79.12
2022-11-15T11:28:02.091Z,78.71
2022-11-15T11:29:02.084Z,78.61
2022-11-15T11:30:02.094Z,78.81
2022-11-15T11:31:02.110Z,79.08
2022-11-15T11:32:02.060Z,78.57
2022-11-15T11:33:02.041Z,78.47
2022-11-15T11:34:02.023Z,78.41
2022-11-15T11:35:02.052Z,78.51
2022-11-15T11:36:02.011Z,78.47
2022-11-15T11:37:01.991Z,78.37
2022-11-15T11:38:01.978Z,78.37
2022-11-15T11:39:01.983Z,78.57
2022-11-15T11:40:06.102Z,77.93
2022-11-15T11:41:02.963Z,77.76
2022-11-15T11:42:01.965Z,78.33
2022-11-15T11:43:01.938Z,77.93
2022-11-15T11:44:01.927Z,77.22
2022-11-15T11:45:01.910Z,77.42
2022-11-15T11:46:01.910Z,76.87
2022-11-15T11:47:01.993Z,77.32
2022-11-15T11:48:01.887Z,77.28
2022-11-15T11:49:01.860Z,76.67
2022-11-15T11:50:01.847Z,76.17
2022-11-15T11:51:01.849Z,74.81
2022-11-15T11:52:01.836Z,75.15
2022-11-15T11:53:04.234Z,75.01
2022-11-15T11:54:01.800Z,75.25
2022-11-15T11:55:01.798Z,74.95
2022-11-15T11:56:01.786Z,75.19
2022-11-15T11:57:01.780Z,75.66
2022-11-15T11:58:01.787Z,74.98
2022-11-15T11:59:01.749Z,75.29
2022-11-15T12:00:01.740Z,74.98
2022-11-15T12:01:01.734Z,75.49
2022-11-15T12:02:01.864Z,75.39
2022-11-15T12:03:02.002Z,76.20
2022-11-15T12:04:01.689Z,75.66
2022-11-15T12:05:01.683Z,75.25
2022-11-15T12:06:01.690Z,74.34
2022-11-15T12:07:01.724Z,74.17
2022-11-15T12:08:04.134Z,74.78
2022-11-15T12:09:01.645Z,73.87
2022-11-15T12:10:01.634Z,73.97
2022-11-15T12:11:01.618Z,75.49
2022-11-15T12:12:01.608Z,75.39
2022-11-15T12:13:01.591Z,75.49
2022-11-15T12:14:01.599Z,74.27
2022-11-15T12:15:01.572Z,75.49
2022-11-15T12:16:04.934Z,74.48
2022-11-15T12:17:02.552Z,74.17
2022-11-15T12:18:01.546Z,72.85
2022-11-15T12:19:01.557Z,72.75
2022-11-15T12:20:01.518Z,73.77
2022-11-15T12:21:01.526Z,73.46
2022-11-15T12:22:01.495Z,73.36
2022-11-15T12:23:01.523Z,73.26
2022-11-15T12:24:01.594Z,72.65
2022-11-15T12:25:01.473Z,72.96
2022-11-15T12:26:01.448Z,73.36
2022-11-15T12:27:01.450Z,72.69
2022-11-15T12:28:01.462Z,72.55
2022-11-15T12:29:09.222Z,73.09
2022-11-15T12:30:02.493Z,73.26
2022-11-15T12:31:01.394Z,72.96
2022-11-15T12:32:01.381Z,72.96
2022-11-15T12:33:01.390Z,72.14
2022-11-15T12:34:06.925Z,72.65
2022-11-15T12:35:02.527Z,73.33
2022-11-15T12:36:01.339Z,72.04
2022-11-15T12:37:01.330Z,72.52
2022-11-15T12:38:01.322Z,72.04
2022-11-15T12:39:01.306Z,73.02
2022-11-15T12:40:04.044Z,72.52
2022-11-15T12:41:01.327Z,72.82
2022-11-15T12:42:01.299Z,72.31
2022-11-15T12:43:01.267Z,70.89
2022-11-15T12:44:01.252Z,70.48
2022-11-15T12:45:01.257Z,69.68
2022-11-15T12:46:01.243Z,68.05
2022-11-15T12:47:01.218Z,68.26
2022-11-15T12:48:01.209Z,68.08
2022-11-15T12:49:01.217Z,68.08
2022-11-15T12:50:01.180Z,67.98
2022-11-15T12:51:01.207Z,67.58
2022-11-15T12:52:01.168Z,67.88
2022-11-15T12:53:01.165Z,67.68